| time (UTC) | temp F | wind direction | speed knots | gust knots | rain 1hr in | rain 24hr in | rain mn in | humidity % | barometer mb |
| 20260507014609 | 54 | 360 | 0.0 | 0.0 | 0.01 | 0.31 | 0.31 | 96 | 1007.3 |
| 20260507013116 | 55 | 360 | 0.0 | 0.0 | 0.01 | 0.30 | 0.30 | 96 | 1007.3 |
| 20260507011504 | 56 | 360 | 0.0 | 0.0 | 0.05 | 0.30 | 0.30 | 96 | 1006.9 |
| 20260507010108 | 56 | 360 | 0.0 | 0.0 | 0.05 | 0.30 | 0.30 | 96 | 1006.7 |
| 20260507004611 | 58 | 360 | 0.0 | 0.0 | 0.05 | 0.30 | 0.30 | 96 | 1006.4 |
| 20260507003118 | 58 | 360 | 0.0 | 0.0 | 0.04 | 0.28 | 0.28 | 97 | 1006.4 |
| 20260507001503 | 59 | 360 | 0.0 | 0.0 | 0.00 | 0.25 | 0.25 | 97 | 1005.7 |
| 20260507000109 | 59 | 360 | 0.0 | 0.0 | 0.00 | 0.25 | 0.25 | 96 | 1005.6 |
| 20260506234612 | 59 | 360 | 0.0 | 0.0 | 0.00 | 0.25 | 0.25 | 96 | 1005.5 |
| 20260506233119 | 59 | 360 | 0.0 | 0.0 | 0.00 | 0.25 | 0.25 | 96 | 1005.3 |
| 20260506231621 | 59 | 360 | 0.0 | 0.0 | 0.00 | 0.25 | 0.25 | 96 | 1005.4 |
| 20260506230116 | 59 | 360 | 0.0 | 0.0 | 0.00 | 0.25 | 0.25 | 96 | 1005.2 |
| 20260506224622 | 59 | 360 | 0.0 | 0.0 | 0.02 | 0.25 | 0.25 | 96 | 1005.2 |
| 20260506223127 | 59 | 360 | 0.0 | 0.9 | 0.07 | 0.25 | 0.25 | 96 | 1005.2 |
| 20260506221613 | 59 | 360 | 0.0 | 0.0 | 0.10 | 0.25 | 0.25 | 96 | 1005.2 |
| 20260506220004 | 59 | 360 | 0.0 | 0.0 | 0.11 | 0.25 | 0.25 | 96 | 1005.2 |
| 20260506214611 | 59 | 360 | 0.0 | 0.0 | 0.09 | 0.23 | 0.23 | 96 | 1005.1 |
| 20260506213114 | 59 | 360 | 0.0 | 0.0 | 0.04 | 0.18 | 0.18 | 96 | 1005.1 |
| 20260506211616 | 59 | 360 | 0.0 | 0.0 | 0.02 | 0.15 | 0.15 | 96 | 1005.3 |
| 20260506210130 | 59 | 360 | 0.0 | 0.0 | 0.02 | 0.14 | 0.14 | 95 | 1005.4 |
| 20260506204609 | 59 | 360 | 0.0 | 0.0 | 0.02 | 0.14 | 0.14 | 95 | 1005.4 |
| 20260506203115 | 59 | 360 | 0.0 | 0.0 | 0.03 | 0.14 | 0.14 | 95 | 1005.5 |
| 20260506201503 | 59 | 360 | 0.0 | 0.9 | 0.02 | 0.12 | 0.12 | 95 | 1005.7 |
| 20260506200151 | 59 | 360 | 0.0 | 0.0 | 0.02 | 0.12 | 0.12 | 95 | 1005.8 |
| 20260506194620 | 59 | 360 | 0.0 | 3.5 | 0.04 | 0.12 | 0.12 | 95 | 1006.1 |
| 20260506193118 | 59 | 360 | 0.0 | 1.7 | 0.04 | 0.11 | 0.11 | 94 | 1006.2 |
| 20260506191603 | 60 | 360 | 0.0 | 0.9 | 0.04 | 0.10 | 0.10 | 94 | 1006.2 |
| 20260506190109 | 60 | 360 | 0.0 | 7.0 | 0.04 | 0.10 | 0.10 | 94 | 1006.3 |
| 20260506184616 | 60 | 360 | 0.0 | 0.0 | 0.02 | 0.08 | 0.08 | 93 | 1006.6 |
| 20260506183006 | 61 | 360 | 0.0 | 0.0 | 0.02 | 0.06 | 0.06 | 93 | 1006.4 |
| 20260506181607 | 61 | 360 | 0.0 | 0.0 | 0.04 | 0.06 | 0.06 | 92 | 1006.7 |
| 20260506180112 | 62 | 360 | 0.0 | 0.9 | 0.06 | 0.06 | 0.06 | 92 | 1006.4 |
| 20260506174619 | 62 | 360 | 0.0 | 0.0 | 0.06 | 0.06 | 0.06 | 91 | 1006.6 |
| 20260506173125 | 64 | 360 | 0.0 | 0.0 | 0.04 | 0.04 | 0.04 | 89 | 1006.8 |
| 20260506171614 | 65 | 360 | 0.0 | 0.0 | 0.01 | 0.01 | 0.01 | 86 | 1007.1 |
| 20260506170114 | 66 | 360 | 0.0 | 0.0 | 0.00 | 0.00 | 0.00 | 82 | 1007.2 |
| 20260506164620 | 67 | 360 | 0.0 | 0.0 | 0.00 | 0.00 | 0.00 | 79 | 1007.2 |
| 20260506163108 | 67 | 360 | 0.0 | 0.0 | 0.00 | 0.00 | 0.00 | 77 | 1007.2 |
| 20260506161612 | 67 | 360 | 0.0 | 5.2 | 0.00 | 0.00 | 0.00 | 76 | 1007.4 |
| 20260506160116 | 66 | 360 | 0.0 | 0.0 | 0.00 | 0.00 | 0.00 | 77 | 1007.7 |
| 20260506154604 | 65 | 360 | 0.0 | 0.0 | 0.00 | 0.00 | 0.00 | 80 | 1007.9 |
| 20260506153108 | 65 | 360 | 0.0 | 0.0 | 0.00 | 0.00 | 0.00 | 79 | 1008.1 |
| 20260506151616 | 65 | 360 | 0.0 | 0.0 | 0.00 | 0.00 | 0.00 | 79 | 1008.4 |
| 20260506150120 | 64 | 360 | 0.0 | 0.0 | 0.00 | 0.00 | 0.00 | 80 | 1008.5 |
| 20260506144609 | 64 | 360 | 0.0 | 0.0 | 0.00 | 0.00 | 0.00 | 80 | 1008.4 |
| 20260506143112 | 64 | 360 | 0.0 | 0.0 | 0.00 | 0.00 | 0.00 | 81 | 1008.7 |
| 20260506141504 | 63 | 360 | 0.0 | 0.0 | 0.00 | 0.00 | 0.00 | 81 | 1008.5 |
| 20260506140105 | 63 | 360 | 0.0 | 2.6 | 0.00 | 0.00 | 0.00 | 81 | 1008.7 |
| 20260506134620 | 63 | 360 | 0.0 | 0.0 | 0.00 | 0.00 | 0.00 | 82 | 1008.4 |
| 20260506133117 | 62 | 360 | 0.0 | 0.0 | 0.00 | 0.00 | 0.00 | 83 | 1008.4 |
| 20260506131613 | 61 | 360 | 0.0 | 0.0 | 0.00 | 0.00 | 0.00 | 84 | 1008.5 |
| 20260506130112 | 61 | 360 | 0.0 | 0.0 | 0.00 | 0.00 | 0.00 | 85 | 1008.7 |
| 20260506124618 | 60 | 360 | 0.0 | 0.0 | 0.00 | 0.00 | 0.00 | 86 | 1008.8 |
| 20260506123120 | 60 | 360 | 0.0 | 0.0 | 0.00 | 0.00 | 0.00 | 86 | 1009.0 |
| 20260506121609 | 59 | 360 | 0.0 | 0.0 | 0.00 | 0.00 | 0.00 | 88 | 1009.1 |
| 20260506120114 | 58 | 360 | 0.0 | 0.0 | 0.00 | 0.00 | 0.00 | 88 | 1009.0 |
| 20260506114506 | 58 | 360 | 0.0 | 0.0 | 0.00 | 0.00 | 0.00 | 89 | 1008.9 |
| 20260506113105 | 57 | 360 | 0.0 | 0.0 | 0.00 | 0.00 | 0.00 | 90 | 1009.1 |
| 20260506111627 | 57 | 360 | 0.0 | 0.0 | 0.00 | 0.00 | 0.00 | 91 | 1009.0 |
| 20260506110123 | 56 | 360 | 0.0 | 0.0 | 0.00 | 0.00 | 0.00 | 93 | 1009.2 |
| 20260506104607 | 55 | 360 | 0.0 | 0.0 | 0.00 | 0.00 | 0.00 | 93 | 1009.4 |
| 20260506103113 | 54 | 360 | 0.0 | 0.0 | 0.00 | 0.00 | 0.00 | 93 | 1009.3 |
| 20260506101506 | 54 | 360 | 0.0 | 0.0 | 0.00 | 0.00 | 0.00 | 92 | 1008.9 |
| 20260506100106 | 54 | 360 | 0.0 | 0.0 | 0.00 | 0.00 | 0.00 | 92 | 1009.0 |
| 20260506094611 | 54 | 360 | 0.0 | 0.0 | 0.00 | 0.00 | 0.00 | 90 | 1009.0 |
| 20260506093117 | 54 | 360 | 0.0 | 0.0 | 0.00 | 0.00 | 0.00 | 90 | 1009.1 |
| 20260506091621 | 55 | 360 | 0.0 | 0.0 | 0.00 | 0.00 | 0.00 | 90 | 1009.0 |
| 20260506090107 | 55 | 360 | 0.0 | 0.0 | 0.00 | 0.00 | 0.00 | 90 | 1009.0 |
| 20260506084613 | 55 | 360 | 0.0 | 0.0 | 0.00 | 0.00 | 0.00 | 90 | 1009.0 |
| 20260506083005 | 55 | 360 | 0.0 | 0.0 | 0.00 | 0.00 | 0.00 | 90 | 1009.2 |
| 20260506081606 | 54 | 360 | 0.0 | 0.0 | 0.00 | 0.00 | 0.00 | 90 | 1009.1 |
| 20260506080117 | 54 | 360 | 0.0 | 0.0 | 0.00 | 0.00 | 0.00 | 90 | 1009.1 |
| 20260506073004 | 54 | 360 | 0.0 | 0.0 | 0.00 | 0.00 | 0.00 | 87 | 1008.9 |
| 20260506071606 | 55 | 360 | 0.0 | 0.0 | 0.00 | 0.00 | 0.00 | 87 | 1009.1 |
| 20260506070127 | 55 | 360 | 0.0 | 0.0 | 0.00 | 0.00 | 0.00 | 85 | 1009.0 |
| 20260506061611 | 58 | 360 | 0.0 | 0.0 | 0.00 | 0.00 | 0.00 | 81 | 1008.7 |
| 20260506060120 | 58 | 360 | 0.0 | 0.0 | 0.00 | 0.00 | 0.00 | 80 | 1008.7 |
| 20260506050117 | 60 | 360 | 0.0 | 0.0 | 0.00 | 0.00 | 0.00 | 77 | 1009.0 |
| 20260506044612 | 60 | 360 | 0.0 | 0.0 | 0.00 | 0.00 | 0.00 | 76 | 1009.1 |
| 20260506043116 | 60 | 360 | 0.0 | 0.0 | 0.00 | 0.00 | 0.00 | 75 | 1009.0 |
| 20260506041623 | 61 | 360 | 0.0 | 0.0 | 0.00 | 0.00 | 0.00 | 74 | 1009.1 |
| 20260506040107 | 61 | 360 | 0.0 | 0.0 | 0.00 | 0.00 | 0.00 | 73 | 1009.1 |
| 20260506034616 | 61 | 360 | 0.0 | 0.0 | 0.00 | 0.00 | 0.00 | 72 | 1009.1 |
| 20260506033014 | 62 | 360 | 0.0 | 0.0 | 0.00 | 0.00 | 0.00 | 71 | 1009.1 |
| 20260506031610 | 62 | 360 | 0.0 | 0.0 | 0.00 | 0.00 | 0.00 | 70 | 1009.1 |
| 20260506030113 | 63 | 360 | 0.0 | 0.0 | 0.00 | 0.00 | 0.00 | 69 | 1009.1 |
| 20260506024622 | 63 | 360 | 0.0 | 0.9 | 0.00 | 0.00 | 0.00 | 68 | 1009.2 |
| 20260506023107 | 64 | 360 | 0.0 | 0.0 | 0.00 | 0.00 | 0.00 | 67 | 1009.1 |
| 20260506021612 | 64 | 360 | 0.0 | 0.0 | 0.00 | 0.00 | 0.00 | 67 | 1008.9 |
| 20260506020116 | 65 | 360 | 0.0 | 0.0 | 0.00 | 0.00 | 0.00 | 67 | 1008.8 |